Terminal Aerodrome Forecast
Issued by NWS Portland, OR

Home | Current Version | Previous Version | Text Only | Print | Product List | Glossary On
Versions: 1 2 3 4 5 6 7 8 9 10 11 12 13 14 15 16 17 18
000
FTUS46 KPQR 251140
TAFTTD
TAF
KTTD 251140Z 2512/2612 09015G25KT P6SM SCT050 BKN100
     FM251400 09018G30KT P6SM -RA BKN050 OVC100
     FM252300 18015G28KT P6SM -RA SCT030 OVC050
     FM260200 21014KT P6SM -SHRA SCT030 BKN050
     FM260500 23008KT P6SM -SHRA BKN030 BKN050=

USA.gov is the U.S. government's official web portal to all federal, state and local government web resources and services.